Time;durP1;ratioP1;P1;durP2;ratioP2;P2;SDS_P1;SDS_P2;PMS_P1;PMS_P2;Temp;Humidity;BMP_temperature;BMP_pressure;BME280_temperature;BME280_humidity;BME280_pressure;Samples;Min_cycle;Max_cycle;Signal;HPM_P1;HPM_P2
2022/07/04 00:00:34;;;;;;;4.38;2.80;;;;;;;15.82;63.28;101918.88;5116653;27;20038;-66
2022/07/04 00:03:00;;;;;;;3.10;2.80;;;;;;;15.81;63.21;101914.47;5134906;27;20030;-66
2022/07/04 00:05:26;;;;;;;3.50;2.90;;;;;;;15.76;63.32;101902.34;5135098;27;20027;-66
2022/07/04 00:07:53;;;;;;;5.85;3.08;;;;;;;15.78;63.57;101914.69;5114389;27;20482;-66
2022/07/04 00:10:23;;;;;;;3.47;2.80;;;;;;;15.80;63.41;101909.22;5099640;27;20495;-66
2022/07/04 00:12:48;;;;;;;5.22;2.70;;;;;;;15.77;63.50;101904.06;5114575;27;20037;-66
2022/07/04 00:15:16;;;;;;;3.88;2.83;;;;;;;15.61;63.99;101907.75;5116335;27;20019;-66
2022/07/04 00:17:42;;;;;;;5.15;3.03;;;;;;;15.44;64.54;101902.66;5134715;27;20023;-66
2022/07/04 00:20:09;;;;;;;3.97;2.92;;;;;;;15.56;64.48;101901.84;5114682;27;20447;-66
2022/07/04 00:22:37;;;;;;;3.95;3.20;;;;;;;15.45;64.96;101897.19;5132388;27;20049;-66
2022/07/04 00:25:04;;;;;;;5.97;3.05;;;;;;;15.48;64.90;101904.19;5114078;27;20023;-66
2022/07/04 00:27:29;;;;;;;4.65;3.47;;;;;;;15.41;64.91;101884.09;5131849;27;20436;-66
2022/07/04 00:29:55;;;;;;;4.68;3.22;;;;;;;15.50;64.91;101898.69;5133362;27;20106;-66
2022/07/04 00:32:21;;;;;;;4.85;3.17;;;;;;;15.48;64.71;101903.31;5134318;27;20095;-66
2022/07/04 00:34:47;;;;;;;5.82;3.70;;;;;;;15.34;65.11;101902.41;5134666;27;20048;-66
2022/07/04 00:37:13;;;;;;;7.15;3.40;;;;;;;15.10;65.23;101870.06;5131396;27;20526;-66
2022/07/04 00:39:39;;;;;;;5.30;3.20;;;;;;;15.32;65.29;101904.31;5104371;27;20026;-66
2022/07/04 00:42:08;;;;;;;6.95;3.80;;;;;;;15.27;65.08;101900.25;5114874;27;20115;-66
2022/07/04 00:44:36;;;;;;;;;;;;;;;15.52;63.13;101897.63;5112589;28;20491;-66
2022/07/04 00:47:06;;;;;;;5.40;3.17;;;;;;;15.15;65.13;101893.88;5113776;28;19912;-66
2022/07/04 00:49:34;;;;;;;3.97;3.22;;;;;;;15.10;65.53;101898.66;5112079;28;20015;-66
2022/07/04 00:52:01;;;;;;;4.93;3.70;;;;;;;15.05;65.55;101884.72;5109828;28;20419;-66
2022/07/04 00:54:29;;;;;;;3.20;3.00;;;;;;;14.93;66.10;101897.09;5113110;28;20110;-66
2022/07/04 00:56:55;;;;;;;3.75;3.08;;;;;;;14.97;66.17;101898.59;5112526;28;20020;-66
2022/07/04 00:59:22;;;;;;;4.50;3.47;;;;;;;15.00;65.85;101898.41;5111228;28;20023;-66
2022/07/04 01:01:48;;;;;;;6.10;3.55;;;;;;;14.90;66.18;101902.63;5112592;28;20031;-66
2022/07/04 01:04:14;;;;;;;4.03;3.20;;;;;;;14.97;65.88;101895.91;5111547;28;20051;-66
2022/07/04 01:06:39;;;;;;;4.70;3.28;;;;;;;14.93;65.89;101889.03;5110235;28;20498;-66
2022/07/04 01:09:05;;;;;;;5.07;3.60;;;;;;;14.78;66.32;101877.50;5109577;28;20027;-66
2022/07/04 01:11:30;;;;;;;7.00;3.90;;;;;;;14.86;66.21;101885.91;5111825;28;20582;-66
2022/07/04 01:13:57;;;;;;;3.78;3.30;;;;;;;14.81;66.18;101884.47;5110970;28;20023;-66
2022/07/04 01:16:25;;;;;;;4.30;3.50;;;;;;;14.79;66.50;101891.75;5113378;28;20069;-66
2022/07/04 01:18:52;;;;;;;6.55;3.67;;;;;;;14.77;66.21;101887.34;5112442;28;20132;-66
2022/07/04 01:21:17;;;;;;;5.07;3.55;;;;;;;14.74;66.69;101881.34;5111766;28;20374;-66
2022/07/04 01:23:43;;;;;;;8.05;4.00;;;;;;;14.61;66.91;101870.53;5110320;28;20487;-66
2022/07/04 01:26:08;;;;;;;5.15;3.50;;;;;;;14.66;66.83;101871.13;5109779;28;20076;-66
2022/07/04 01:28:34;;;;;;;5.78;4.05;;;;;;;14.64;66.62;101858.78;5112479;28;20205;-66
2022/07/04 01:31:02;;;;;;;6.05;3.50;;;;;;;14.52;67.40;101868.44;5110536;28;20591;-66
2022/07/04 01:33:28;;;;;;;4.38;3.90;;;;;;;14.45;67.55;101862.59;5112562;28;20027;-66
2022/07/04 01:35:53;;;;;;;4.63;3.13;;;;;;;14.59;67.24;101859.09;5093424;28;20115;-66
2022/07/04 01:38:22;;;;;;;6.93;4.10;;;;;;;14.56;67.23;101864.63;5110159;28;20040;-66
2022/07/04 01:40:47;;;;;;;5.15;4.00;;;;;;;14.51;67.18;101867.59;5112960;28;20841;-66
2022/07/04 01:43:13;;;;;;;4.35;3.55;;;;;;;14.61;66.79;101861.66;5112719;27;20054;-66
2022/07/04 01:45:39;;;;;;;5.43;3.20;;;;;;;14.48;67.24;101858.88;5114442;27;20031;-66
2022/07/04 01:48:11;;;;;;;4.65;3.50;;;;;;;14.53;67.21;101851.44;5132549;27;20050;-66
2022/07/04 01:50:39;;;;;;;4.40;3.70;;;;;;;14.50;67.16;101844.44;5133016;27;20030;-66
2022/07/04 01:53:07;;;;;;;7.47;3.95;;;;;;;14.54;67.11;101851.34;5132084;27;20058;-66
2022/07/04 01:55:35;;;;;;;3.92;3.63;;;;;;;14.48;67.23;101845.50;5132183;27;20386;-66
2022/07/04 01:58:03;;;;;;;8.93;3.70;;;;;;;14.52;67.02;101845.22;5132619;27;20019;-66
2022/07/04 02:03:14;;;;;;;5.18;4.00;;;;;;;14.44;67.31;101841.25;5131133;27;20099;-66
2022/07/04 02:05:40;;;;;;;6.88;4.00;;;;;;;14.52;67.24;101844.34;5113453;27;20436;-66
2022/07/04 02:08:07;;;;;;;6.45;3.50;;;;;;;14.39;67.39;101843.41;5112827;27;20550;-66
2022/07/04 02:10:33;;;;;;;5.72;3.92;;;;;;;14.46;67.32;101842.03;5132443;27;20027;-66
2022/07/04 02:13:01;;;;;;;6.07;3.85;;;;;;;14.28;67.52;101836.03;5132369;27;20075;-66
2022/07/04 02:15:41;;;;;;;6.72;3.78;;;;;;;14.28;67.61;101839.56;5113997;27;20027;-66
2022/07/04 02:18:09;;;;;;;4.68;3.50;;;;;;;14.31;67.21;101839.38;5131379;27;20027;-66
2022/07/04 02:20:36;;;;;;;5.28;3.88;;;;;;;14.27;67.48;101839.69;5112740;27;20023;-66
2022/07/04 02:23:02;;;;;;;7.25;4.30;;;;;;;14.15;68.03;101837.75;5130837;27;20037;-66
2022/07/04 02:25:28;;;;;;;7.75;3.90;;;;;;;14.18;67.95;101842.94;5113636;27;20092;-66
2022/07/04 02:27:56;;;;;;;4.80;4.13;;;;;;;14.14;67.88;101842.25;5095257;27;20027;-67
2022/07/04 02:30:24;;;;;;;7.43;4.68;;;;;;;14.20;67.82;101846.34;5131187;27;20027;-66
2022/07/04 02:32:52;;;;;;;5.85;4.43;;;;;;;14.08;68.57;101851.50;5131892;27;20023;-66
2022/07/04 02:35:21;;;;;;;9.90;4.55;;;;;;;14.04;68.57;101851.81;5130661;27;20367;-66
2022/07/04 02:37:49;;;;;;;6.55;4.50;;;;;;;14.07;68.44;101852.47;5131651;27;20019;-66
2022/07/04 02:40:16;;;;;;;4.70;3.88;;;;;;;14.06;68.71;101858.78;5113794;27;20168;-66
2022/07/04 02:42:42;;;;;;;6.00;4.57;;;;;;;13.99;68.78;101859.25;5131823;27;20546;-66
2022/07/04 02:45:09;;;;;;;8.38;4.68;;;;;;;13.99;69.15;101854.75;5111598;27;20047;-66
2022/07/04 02:47:34;;;;;;;6.35;4.30;;;;;;;13.92;69.24;101857.91;5131603;27;20114;-66
2022/07/04 02:50:02;;;;;;;4.95;4.40;;;;;;;14.05;68.72;101853.50;5113296;27;20183;-66
2022/07/04 02:52:27;;;;;;;4.90;4.32;;;;;;;14.02;68.89;101859.91;5112113;27;20142;-66
2022/07/04 02:54:53;;;;;;;6.60;4.45;;;;;;;13.95;68.94;101853.22;5112833;27;20059;-66
2022/07/04 02:57:19;;;;;;;6.13;4.30;;;;;;;13.94;68.71;101850.63;5129904;27;20493;-66
2022/07/04 02:59:44;;;;;;;4.95;4.45;;;;;;;13.90;69.18;101859.81;5131333;27;20054;-66
2022/07/04 03:02:10;;;;;;;5.47;4.65;;;;;;;13.94;69.17;101864.88;5110846;27;20019;-66
2022/07/04 03:04:35;;;;;;;5.25;4.55;;;;;;;13.91;69.53;101864.19;5131602;27;20034;-66
2022/07/04 03:07:03;;;;;;;4.60;4.18;;;;;;;13.94;69.49;101864.88;5095698;27;20118;-66
2022/07/04 03:09:28;;;;;;;6.18;4.13;;;;;;;13.86;69.65;101862.66;5113606;27;20027;-66
2022/07/04 03:11:54;;;;;;;5.03;4.43;;;;;;;13.82;69.69;101868.28;5113143;27;20047;-66
2022/07/04 03:14:20;;;;;;;6.00;4.00;;;;;;;13.77;69.87;101873.94;5111534;28;20050;-66
2022/07/04 03:16:47;;;;;;;6.25;4.65;;;;;;;13.71;70.44;101890.34;5112317;27;20120;-66
2022/07/04 03:19:13;;;;;;;5.20;4.65;;;;;;;13.68;70.22;101879.81;5110902;28;20070;-66
2022/07/04 03:21:38;;;;;;;6.18;4.40;;;;;;;13.67;70.42;101887.91;5112791;27;20054;-66
2022/07/04 03:24:05;;;;;;;5.60;4.55;;;;;;;13.64;70.34;101881.78;5109072;27;20482;-66
2022/07/04 03:26:32;;;;;;;6.18;4.95;;;;;;;13.72;70.36;101885.84;5128941;28;20075;-66
2022/07/04 03:28:59;;;;;;;6.13;4.50;;;;;;;13.68;70.19;101882.50;5113098;28;20027;-66
2022/07/04 03:31:25;;;;;;;7.95;4.15;;;;;;;13.75;70.37;101891.88;5112658;28;20389;-66
2022/07/04 03:33:52;;;;;;;8.32;4.45;;;;;;;13.72;70.35;101892.03;5131395;28;20027;-66
2022/07/04 03:36:17;;;;;;;5.10;4.60;;;;;;;13.67;71.28;101890.59;5128822;28;20286;-66
2022/07/04 03:38:45;;;;;;;7.13;4.57;;;;;;;13.54;71.39;101896.66;5130307;28;20066;-66
2022/07/04 03:41:13;;;;;;;6.30;4.65;;;;;;;13.54;71.23;101901.16;5110341;28;20533;-66
2022/07/04 03:43:39;;;;;;;5.40;4.53;;;;;;;13.39;72.14;101906.44;5113131;28;20055;-66
2022/07/04 03:46:04;;;;;;;5.25;4.63;;;;;;;13.51;71.91;101910.22;5112902;28;20101;-66
2022/07/04 03:48:30;;;;;;;7.53;4.95;;;;;;;13.63;72.08;101913.97;5095731;28;20055;-66
2022/07/04 03:50:55;;;;;;;7.18;4.93;;;;;;;13.53;72.56;101920.81;5129276;28;20042;-66
2022/07/04 03:53:23;;;;;;;8.63;5.30;;;;;;;13.56;72.62;101918.84;5129295;27;20122;-66
2022/07/04 03:55:49;;;;;;;8.55;5.05;;;;;;;13.58;72.65;101902.69;5079562;28;20030;-66
2022/07/04 03:58:17;;;;;;;5.97;5.38;;;;;;;13.55;72.99;101909.06;5131198;28;20031;-66
2022/07/04 04:00:42;;;;;;;6.05;4.90;;;;;;;13.59;72.94;101915.13;5111334;28;20031;-66
2022/07/04 04:05:56;;;;;;;7.63;5.20;;;;;;;13.60;73.10;101922.19;5128677;28;20076;-66
2022/07/04 04:08:23;;;;;;;7.55;5.30;;;;;;;13.61;73.23;101923.91;5130902;28;20023;-66
2022/07/04 04:10:50;;;;;;;9.20;5.90;;;;;;;13.67;73.37;101922.69;5131127;28;20095;-66
2022/07/04 04:13:16;;;;;;;10.23;5.57;;;;;;;13.59;73.43;101907.97;5112395;28;20015;-66
2022/07/04 04:15:41;;;;;;;9.15;5.05;;;;;;;13.60;73.84;101917.69;5129085;27;20397;-66
2022/07/04 04:18:07;;;;;;;10.90;5.78;;;;;;;13.57;74.41;101920.53;5093418;28;20031;-66
2022/07/04 04:20:32;;;;;;;10.32;5.63;;;;;;;13.64;73.94;101921.03;5110871;28;20029;-66
2022/07/04 04:22:58;;;;;;;7.72;5.80;;;;;;;13.63;74.23;101928.19;5111890;28;20038;-66
2022/07/04 04:25:24;;;;;;;10.57;5.80;;;;;;;13.61;74.16;101926.56;5130233;27;20062;-66
2022/07/04 04:27:49;;;;;;;9.07;5.22;;;;;;;13.61;74.35;101932.78;5115343;27;20138;-66
2022/07/04 04:30:17;;;;;;;10.32;5.35;;;;;;;13.59;74.68;101928.50;5095191;27;20110;-66
2022/07/04 04:32:43;;;;;;;10.55;5.13;;;;;;;13.55;74.47;101909.06;5116471;27;20446;-66
2022/07/04 04:35:09;;;;;;;7.57;4.93;;;;;;;13.69;74.83;101942.16;5133153;27;20033;-66
2022/07/04 04:37:34;;;;;;;9.93;5.45;;;;;;;13.73;74.90;101946.38;5132945;27;20034;-66
2022/07/04 04:40:00;;;;;;;6.07;4.72;;;;;;;13.79;74.95;101952.22;5113972;27;20031;-66
2022/07/04 04:42:25;;;;;;;8.15;5.10;;;;;;;13.85;75.23;101945.66;5115826;27;20035;-66
2022/07/04 04:44:56;;;;;;;8.20;5.30;;;;;;;13.85;74.94;101941.19;5134205;27;20115;-66
2022/07/04 04:47:21;;;;;;;6.55;4.97;;;;;;;13.95;75.06;101943.31;5116216;27;20034;-66
2022/07/04 04:49:47;;;;;;;9.07;5.22;;;;;;;13.95;75.20;101938.81;5131542;27;20034;-66
2022/07/04 04:52:13;;;;;;;8.40;5.20;;;;;;;13.86;75.12;101912.63;5127893;27;20031;-66
2022/07/04 04:54:39;;;;;;;7.25;5.10;;;;;;;14.12;74.73;101932.47;5132861;27;20015;-66
2022/07/04 04:57:07;;;;;;;7.95;5.30;;;;;;;14.13;75.02;101931.50;5132730;27;20038;-66
2022/07/04 04:59:32;;;;;;;6.88;5.50;;;;;;;14.14;74.84;101925.19;5132197;27;20031;-66
2022/07/04 05:01:58;;;;;;;10.80;5.53;;;;;;;14.23;74.86;101927.28;5115469;27;20143;-66
2022/07/04 05:04:24;;;;;;;6.40;5.20;;;;;;;14.27;74.69;101928.84;5115863;27;20020;-66
2022/07/04 05:06:51;;;;;;;10.80;5.22;;;;;;;14.31;74.83;101927.69;5133550;27;20454;-66
2022/07/04 05:09:17;;;;;;;11.70;5.15;;;;;;;14.36;74.88;101926.56;5134498;27;20030;-66
2022/07/04 05:11:42;;;;;;;7.22;5.93;;;;;;;14.40;74.90;101922.72;5133135;27;20038;-66
2022/07/04 05:14:08;;;;;;;8.00;5.43;;;;;;;14.49;74.85;101919.47;5098639;27;20035;-66
2022/07/04 05:16:34;;;;;;;9.38;5.10;;;;;;;14.54;74.90;101926.28;5115610;27;20538;-66
2022/07/04 05:19:00;;;;;;;8.27;5.40;;;;;;;14.59;74.60;101911.75;5115149;27;20091;-66
2022/07/04 05:21:26;;;;;;;8.52;5.20;;;;;;;14.61;74.46;101908.03;5097723;27;20481;-66
2022/07/04 05:23:52;;;;;;;9.23;5.93;;;;;;;14.70;74.75;101909.25;5133354;27;20042;-66
2022/07/04 05:26:18;;;;;;;6.93;5.07;;;;;;;14.80;74.75;101929.16;5115054;27;20220;-66
2022/07/04 05:28:43;;;;;;;8.70;6.07;;;;;;;14.85;75.17;101926.16;5133293;27;20442;-66
2022/07/04 05:31:09;;;;;;;8.38;5.30;;;;;;;14.93;74.38;101924.72;5133055;27;20590;-66
2022/07/04 05:33:34;;;;;;;11.07;5.63;;;;;;;14.94;74.54;101925.56;5132029;27;20470;-66
2022/07/04 05:36:00;;;;;;;9.98;5.38;;;;;;;14.95;74.76;101925.50;5097229;27;20077;-66
2022/07/04 05:38:27;;;;;;;8.48;5.78;;;;;;;15.10;74.87;101929.00;5131614;27;20123;-66
2022/07/04 05:40:53;;;;;;;11.88;5.57;;;;;;;15.26;74.30;101930.69;5132798;27;20023;-66
2022/07/04 05:43:21;;;;;;;7.82;5.68;;;;;;;15.36;74.27;101934.50;5114403;27;20376;-66
2022/07/04 05:45:48;;;;;;;9.77;5.75;;;;;;;15.40;74.39;101936.00;5114901;27;20080;-66
2022/07/04 05:48:13;;;;;;;9.23;4.93;;;;;;;15.47;74.12;101939.13;5131579;27;20104;-66
2022/07/04 05:50:42;;;;;;;10.85;5.32;;;;;;;15.59;73.73;101939.19;5132532;27;20027;-66
2022/07/04 05:53:07;;;;;;;10.82;4.80;;;;;;;15.67;73.38;101936.84;5114405;27;20045;-66
2022/07/04 05:55:34;;;;;;;12.43;5.40;;;;;;;15.74;73.67;101936.47;5113256;27;20118;-66
2022/07/04 05:58:00;;;;;;;11.90;5.70;;;;;;;15.88;73.22;101942.63;5132902;27;20474;-66
2022/07/04 06:00:26;;;;;;;10.43;5.25;;;;;;;15.77;73.19;101898.72;5114465;27;20046;-66
2022/07/04 06:02:51;;;;;;;7.97;5.25;;;;;;;16.13;73.16;101946.31;5129675;27;20034;-66
2022/07/04 06:05:16;;;;;;;7.45;4.80;;;;;;;16.28;72.33;101941.69;5132114;27;20274;-66
2022/07/04 06:07:42;;;;;;;10.32;5.22;;;;;;;16.38;72.63;101948.13;5113600;27;20039;-66
2022/07/04 06:10:08;;;;;;;10.18;5.10;;;;;;;16.47;71.85;101954.69;5132271;27;20102;-66
2022/07/04 06:12:36;;;;;;;10.73;5.13;;;;;;;16.58;71.73;101949.41;5130130;27;20478;-66
2022/07/04 06:15:02;;;;;;;9.25;5.28;;;;;;;16.52;71.01;101939.09;5130270;27;20363;-66
2022/07/04 06:17:28;;;;;;;10.70;4.93;;;;;;;16.66;70.92;101944.38;5129371;27;20062;-66
2022/07/04 06:19:56;;;;;;;8.45;4.60;;;;;;;16.79;70.55;101941.69;5114635;27;20058;-67
2022/07/04 06:22:22;;;;;;;8.15;4.80;;;;;;;16.86;69.97;101940.28;5112843;27;20031;-67
2022/07/04 06:24:49;;;;;;;8.15;4.68;;;;;;;16.94;70.03;101939.72;5112216;27;20050;-66
2022/07/04 06:27:15;;;;;;;8.77;4.93;;;;;;;17.00;69.61;101953.59;5109260;27;20059;-66
2022/07/04 06:29:41;;;;;;;10.48;4.63;;;;;;;17.09;68.94;101951.19;5113929;27;20073;-66
2022/07/04 06:32:07;;;;;;;10.20;4.20;;;;;;;17.03;68.40;101949.81;5131422;27;20039;-66
2022/07/04 06:37:17;;;;;;;6.75;4.15;;;;;;;16.94;68.33;101943.28;5116423;27;20401;-66
2022/07/04 06:39:43;;;;;;;11.13;4.60;;;;;;;17.02;68.17;101946.25;5114196;27;20027;-66
2022/07/04 06:42:08;;;;;;;6.72;4.18;;;;;;;17.21;68.29;101953.00;5111516;27;20034;-66
2022/07/04 06:44:36;;;;;;;7.75;4.25;;;;;;;17.28;67.63;101950.72;5111940;27;20557;-66
2022/07/04 06:47:01;;;;;;;8.75;3.92;;;;;;;17.47;67.64;101945.66;5107764;27;20039;-66
2022/07/04 06:49:27;;;;;;;9.45;3.92;;;;;;;17.69;67.05;101956.53;5130010;27;20570;-66
2022/07/04 06:51:52;;;;;;;7.13;3.97;;;;;;;17.81;65.88;101949.41;5094933;27;20027;-66
2022/07/04 06:54:17;;;;;;;6.22;4.72;;;;;;;17.84;64.98;101959.06;5094884;27;20038;-66
2022/07/04 06:56:43;;;;;;;5.05;4.07;;;;;;;17.88;65.72;101944.41;5097481;27;20084;-66
2022/07/04 06:59:08;;;;;;;5.18;3.95;;;;;;;18.10;64.76;101951.69;5130707;27;20474;-66
2022/07/04 07:01:34;;;;;;;7.72;3.78;;;;;;;18.13;64.95;101959.53;5128104;27;20127;-66
2022/07/04 07:04:00;;;;;;;6.18;3.53;;;;;;;17.97;64.25;101951.78;5084935;27;20023;-66
2022/07/04 07:06:25;;;;;;;6.30;4.25;;;;;;;17.81;63.91;101941.31;5095850;27;20035;-66
2022/07/04 07:08:51;;;;;;;6.47;3.53;;;;;;;17.84;63.71;101937.53;5131550;27;20023;-66
2022/07/04 07:11:18;;;;;;;9.77;4.05;;;;;;;17.90;64.39;101937.06;5131134;27;20517;-66
2022/07/04 07:13:49;;;;;;;7.20;3.97;;;;;;;18.01;65.03;101945.19;5131419;27;20477;-65
2022/07/04 07:16:15;;;;;;;8.07;4.20;;;;;;;18.20;65.46;101941.91;5126177;27;20044;-66
2022/07/04 07:18:42;;;;;;;8.98;4.55;;;;;;;18.42;64.68;101943.81;5127230;27;20358;-66
2022/07/04 07:21:07;;;;;;;7.65;4.15;;;;;;;18.50;63.60;101930.59;5128231;27;20046;-66
2022/07/04 07:23:32;;;;;;;8.23;3.92;;;;;;;18.66;63.33;101929.34;5130562;27;20046;-66
2022/07/04 07:26:00;;;;;;;8.57;3.67;;;;;;;18.77;62.96;101924.84;5092720;27;20039;-66
2022/07/04 07:28:28;;;;;;;7.65;3.90;;;;;;;18.87;62.62;101930.34;5106241;28;20513;-66
2022/07/04 07:30:54;;;;;;;8.40;4.60;;;;;;;18.72;61.38;101945.88;5128446;28;20079;-66
2022/07/04 07:33:19;;;;;;;6.03;3.83;;;;;;;18.74;62.53;101943.97;5110283;28;20035;-66
2022/07/04 07:35:45;;;;;;;5.55;3.08;;;;;;;18.81;60.73;101947.88;5112250;28;20023;-66
2022/07/04 07:38:10;;;;;;;11.65;3.70;;;;;;;18.90;59.64;101948.13;5128337;28;20038;-66
2022/07/04 07:40:36;;;;;;;9.00;2.78;;;;;;;18.84;57.67;101957.56;5110939;28;20038;-66
2022/07/04 07:43:01;;;;;;;5.45;2.78;;;;;;;18.86;58.97;101954.75;5087873;28;20110;-67
2022/07/04 07:45:26;;;;;;;4.28;2.55;;;;;;;19.03;59.23;101944.31;5127658;28;20058;-66
2022/07/04 07:47:55;;;;;;;4.28;2.28;;;;;;;19.19;59.12;101943.06;5093617;28;20035;-66
2022/07/04 07:50:21;;;;;;;6.82;2.65;;;;;;;19.44;56.63;101948.16;5129988;28;20435;-66
2022/07/04 07:52:47;;;;;;;5.35;2.42;;;;;;;19.51;57.60;101941.25;5129300;28;20035;-66
2022/07/04 07:55:13;;;;;;;6.53;2.28;;;;;;;19.62;56.61;101940.34;5130958;28;20393;-66
2022/07/04 07:57:39;;;;;;;6.38;2.17;;;;;;;19.73;56.46;101934.91;5130433;28;20030;-66
2022/07/04 08:00:06;;;;;;;4.68;2.60;;;;;;;19.82;55.28;101937.81;5124972;27;20027;-66
2022/07/04 08:05:17;;;;;;;7.75;2.60;;;;;;;20.05;53.81;101938.56;5078207;27;20050;-66
2022/07/04 08:07:44;;;;;;;4.53;2.30;;;;;;;20.12;52.91;101929.81;5134564;27;20027;-66
2022/07/04 08:10:09;;;;;;;4.97;2.75;;;;;;;20.23;53.48;101928.84;5116821;27;20023;-66
2022/07/04 08:12:35;;;;;;;6.30;2.22;;;;;;;20.27;52.84;101926.78;5134880;27;20045;-66
2022/07/04 08:15:01;;;;;;;4.15;1.90;;;;;;;20.33;53.41;101935.19;5116548;27;20490;-66
2022/07/04 08:17:28;;;;;;;3.92;2.22;;;;;;;20.60;53.74;101933.78;5116975;27;20023;-66
2022/07/04 08:19:53;;;;;;;6.03;2.25;;;;;;;20.62;52.80;101938.06;5135762;27;20129;-66
2022/07/04 08:22:19;;;;;;;3.83;1.95;;;;;;;20.70;52.39;101940.09;5098997;27;20403;-66
2022/07/04 08:24:44;;;;;;;4.20;2.10;;;;;;;20.72;51.70;101945.38;5116484;27;20039;-66
2022/07/04 08:27:10;;;;;;;8.63;2.28;;;;;;;20.81;51.94;101941.84;5109283;27;20027;-66
2022/07/04 08:29:36;;;;;;;4.13;2.15;;;;;;;20.88;51.72;101951.09;5127058;27;20020;-67
2022/07/04 08:32:02;;;;;;;3.38;2.10;;;;;;;21.02;51.98;101945.31;5129862;27;20119;-66
2022/07/04 08:34:27;;;;;;;6.07;2.58;;;;;;;21.17;50.98;101948.50;5132821;27;20027;-66
2022/07/04 08:36:53;;;;;;;6.55;2.13;;;;;;;21.20;50.02;101958.19;5114783;27;20031;-66
2022/07/04 08:39:21;;;;;;;3.42;1.65;;;;;;;21.07;51.26;101951.19;5114218;27;20101;-66
2022/07/04 08:41:51;;;;;;;4.40;1.73;;;;;;;21.19;50.95;101942.94;5114141;27;20413;-66
2022/07/04 08:44:20;;;;;;;5.32;2.15;;;;;;;21.34;50.84;101952.38;5131057;27;20486;-66
2022/07/04 08:46:49;;;;;;;3.03;1.60;;;;;;;21.47;51.38;101949.41;5130508;27;20045;-66
2022/07/04 08:49:20;;;;;;;6.57;1.90;;;;;;;21.45;50.25;101952.28;5135265;27;20019;-66
2022/07/04 08:51:54;;;;;;;3.42;1.85;;;;;;;21.62;50.91;101944.44;5123013;27;20019;-66
2022/07/04 08:59:58;;;;;;;3.03;1.83;;;;;;;21.90;50.65;101949.00;5128133;27;20046;-66
2022/07/04 09:02:27;;;;;;;4.13;1.95;;;;;;;21.99;50.86;101955.41;5135035;27;20027;-66
2022/07/04 09:04:52;;;;;;;8.13;2.00;;;;;;;22.09;51.34;101956.28;5135074;27;20144;-66
2022/07/04 09:07:18;;;;;;;3.15;1.52;;;;;;;22.09;50.04;101960.81;5107498;27;20035;-66
2022/07/04 09:09:44;;;;;;;5.10;1.73;;;;;;;22.30;50.32;101953.41;5115719;27;20035;-66
2022/07/04 09:12:11;;;;;;;6.95;2.08;;;;;;;22.37;49.12;101948.25;5132458;27;20672;-66
2022/07/04 09:14:38;;;;;;;3.50;1.83;;;;;;;22.49;48.67;101944.34;5115973;27;20051;-66
2022/07/04 09:17:05;;;;;;;5.93;1.85;;;;;;;22.58;50.28;101948.88;5134215;27;20111;-66
2022/07/04 09:19:32;;;;;;;8.30;2.10;;;;;;;22.62;48.74;101949.47;5134467;27;20031;-66
2022/07/04 09:22:02;;;;;;;5.32;1.80;;;;;;;22.81;47.58;101948.50;5133625;27;20023;-66
2022/07/04 09:24:48;;;;;;;5.53;1.70;;;;;;;22.98;49.01;101944.19;5134105;27;20027;-66
2022/07/04 09:27:35;;;;;;;6.03;1.92;;;;;;;23.08;47.05;101939.53;5133782;27;20027;-66
2022/07/04 09:30:03;;;;;;;3.72;1.63;;;;;;;23.29;46.71;101948.25;5134176;27;20385;-66
2022/07/04 09:32:42;;;;;;;4.78;1.65;;;;;;;23.24;48.08;101945.16;5114856;27;20027;-66
2022/07/04 09:35:22;;;;;;;6.05;1.67;;;;;;;23.44;47.13;101947.72;5133811;27;20030;-66
2022/07/04 09:37:53;;;;;;;6.63;1.73;;;;;;;23.59;45.64;101938.06;5133250;27;20035;-66
2022/07/04 09:40:26;;;;;;;5.50;1.63;;;;;;;23.73;45.66;101953.81;5133790;27;20035;-66
2022/07/04 09:42:59;;;;;;;5.13;1.60;;;;;;;23.57;45.76;101943.63;5114908;27;20022;-66
2022/07/04 09:45:26;;;;;;;4.45;1.55;;;;;;;23.40;44.22;101946.34;5133305;27;20047;-66
2022/07/04 09:47:57;;;;;;;2.83;1.40;;;;;;;23.31;44.19;101945.41;5133646;27;20094;-66
2022/07/04 09:50:25;;;;;;;6.20;1.65;;;;;;;23.67;43.91;101946.25;5133666;27;20030;-66
2022/07/04 09:53:02;;;;;;;4.40;1.60;;;;;;;23.53;45.07;101941.38;5114153;27;20059;-66
2022/07/04 09:55:30;;;;;;;4.13;1.80;;;;;;;23.54;45.14;101935.78;5114887;27;20111;-66
2022/07/04 09:58:04;;;;;;;6.30;1.67;;;;;;;23.47;45.77;101948.28;5133672;27;20019;-66
2022/07/04 10:00:35;;;;;;;4.78;1.80;;;;;;;23.62;44.51;101945.88;5133155;27;20789;-66
2022/07/04 10:03:25;;;;;;;3.72;1.40;;;;;;;23.73;44.59;101947.53;5114665;27;20111;-67
2022/07/04 10:06:02;;;;;;;5.55;1.90;;;;;;;23.75;44.81;101948.25;5132518;27;20019;-66
2022/07/04 10:08:28;;;;;;;6.22;2.00;;;;;;;23.60;46.03;101939.75;5133204;27;20031;-66
2022/07/04 10:10:58;;;;;;;3.38;1.60;;;;;;;23.43;46.14;101933.31;5114136;27;20497;-66
2022/07/04 10:13:24;;;;;;;3.80;2.00;;;;;;;23.40;46.72;101943.63;5130543;27;20042;-65
2022/07/04 10:15:50;;;;;;;5.20;2.20;;;;;;;23.33;44.65;101949.66;5114503;27;20015;-65
2022/07/04 10:18:19;;;;;;;3.53;1.55;;;;;;;23.43;45.25;101936.00;5133256;27;20030;-67
2022/07/04 10:20:45;;;;;;;5.63;2.03;;;;;;;23.69;46.59;101924.38;5114323;27;20091;-65
2022/07/04 10:23:11;;;;;;;3.30;1.63;;;;;;;23.93;43.03;101940.06;5132925;27;20027;-66
2022/07/04 10:25:37;;;;;;;6.65;1.70;;;;;;;24.15;44.40;101938.69;5132058;27;20106;-66
2022/07/04 10:28:03;;;;;;;5.80;2.00;;;;;;;24.10;44.19;101939.19;5133022;27;20561;-66
2022/07/04 10:30:32;;;;;;;7.03;1.80;;;;;;;24.03;44.98;101922.66;5114559;27;20122;-66
2022/07/04 10:33:01;;;;;;;;;;;;;;;24.52;44.53;101927.56;5132951;27;20031;-66
2022/07/04 10:35:47;;;;;;;7.68;1.90;;;;;;;24.41;43.78;101928.69;5133072;27;19919;-66
2022/07/04 10:38:16;;;;;;;5.35;2.20;;;;;;;24.38;42.87;101919.97;5113950;27;20432;-66
2022/07/04 10:40:50;;;;;;;3.92;1.88;;;;;;;24.69;43.40;101918.47;5132501;27;20024;-66
2022/07/04 10:46:16;;;;;;;6.43;2.05;;;;;;;24.79;41.82;101917.50;5132510;27;20486;-66
2022/07/04 10:49:03;;;;;;;6.80;2.30;;;;;;;24.95;43.08;101917.56;5072312;27;20050;-65
2022/07/04 10:51:38;;;;;;;8.38;1.65;;;;;;;24.85;40.19;101917.66;5131938;27;20030;-66
2022/07/04 10:54:07;;;;;;;5.43;1.50;;;;;;;25.04;40.10;101910.28;5132005;27;20128;-66
2022/07/04 10:56:39;;;;;;;4.75;1.70;;;;;;;25.14;40.61;101909.13;5113971;27;20023;-65
2022/07/04 10:59:13;;;;;;;3.97;1.33;;;;;;;25.35;41.59;101900.50;5113553;27;20072;-65
2022/07/04 11:01:45;;;;;;;5.07;1.85;;;;;;;25.35;40.76;101895.06;5132357;27;20035;-66
2022/07/04 11:04:10;;;;;;;4.13;1.52;;;;;;;25.46;38.33;101895.75;5132144;27;20468;-67
2022/07/04 11:06:36;;;;;;;5.50;1.67;;;;;;;25.59;38.88;101894.22;5112966;27;20117;-66
2022/07/04 11:09:23;;;;;;;3.67;1.60;;;;;;;25.53;37.90;101903.06;5131514;27;20481;-66
2022/07/04 11:11:59;;;;;;;5.68;1.60;;;;;;;25.56;39.49;101899.13;5132003;27;20098;-66
2022/07/04 11:15:00;;;;;;;4.68;1.48;;;;;;;25.44;38.57;101904.06;5132530;27;20019;-66
2022/07/04 11:17:38;;;;;;;5.68;1.67;;;;;;;25.75;40.69;101897.97;5127211;27;20519;-66
2022/07/04 11:20:06;;;;;;;;;;;;;;;26.25;41.06;101897.75;5113851;27;20486;-67
2022/07/04 11:22:31;;;;;;;3.22;1.42;;;;;;;26.30;39.98;101889.06;5131131;27;19963;-66
2022/07/04 11:24:57;;;;;;;3.60;1.45;;;;;;;26.41;37.54;101896.00;5114045;28;20050;-68
2022/07/04 11:27:23;;;;;;;3.33;1.55;;;;;;;26.21;37.41;101906.47;5096846;27;20035;-67
2022/07/04 11:29:53;;;;;;;6.72;1.75;;;;;;;26.12;37.30;101902.91;5113550;28;20481;-67
2022/07/04 11:32:19;;;;;;;5.90;1.52;;;;;;;25.96;37.33;101892.00;5113185;28;20423;-67
2022/07/04 11:34:46;;;;;;;7.25;1.83;;;;;;;25.77;38.12;101896.78;5131798;28;20023;-65
2022/07/04 11:37:11;;;;;;;8.32;2.00;;;;;;;25.65;39.46;101889.97;5133759;27;20041;-65
2022/07/04 11:39:37;;;;;;;4.28;1.30;;;;;;;25.63;40.15;101883.81;5134930;27;20023;-65
2022/07/04 11:45:02;;;;;;;5.00;2.00;;;;;;;26.09;39.00;101886.00;5135865;27;20520;-65
2022/07/04 11:47:39;;;;;;;5.70;1.90;;;;;;;26.25;39.58;101889.56;5117493;27;20031;-65